Time;durP1;ratioP1;P1;durP2;ratioP2;P2;SDS_P1;SDS_P2;PMS_P1;PMS_P2;Temp;Humidity;BMP_temperature;BMP_pressure;BME280_temperature;BME280_humidity;BME280_pressure;Samples;Min_cycle;Max_cycle;Signal;HPM_P1;HPM_P2
2023/03/29 00:01:59;;;;;;;10.30;5.78;;;6.10;1.00;;;;;;5048226;28;20103;-67
2023/03/29 00:04:26;;;;;;;9.02;5.05;;;5.70;1.00;;;;;;5052521;28;20029;-68
2023/03/29 00:06:53;;;;;;;11.32;5.38;;;6.70;1.00;;;;;;5057760;28;20045;-68
2023/03/29 00:09:19;;;;;;;11.15;5.57;;;5.80;1.00;;;;;;5046708;28;20095;-68
2023/03/29 00:11:45;;;;;;;9.07;5.65;;;5.80;1.00;;;;;;5051503;28;20045;-67
2023/03/29 00:14:11;;;;;;;8.77;4.93;;;6.50;1.00;;;;;;5053100;28;20068;-67
2023/03/29 00:16:37;;;;;;;14.05;5.00;;;5.90;1.00;;;;;;5045136;28;20033;-67
2023/03/29 00:19:03;;;;;;;12.23;4.55;;;5.70;1.00;;;;;;5049532;28;20405;-67
2023/03/29 00:21:29;;;;;;;9.50;4.70;;;5.40;1.00;;;;;;5045022;28;20032;-67
2023/03/29 00:23:56;;;;;;;10.43;4.88;;;5.80;1.00;;;;;;5059457;28;20126;-67
2023/03/29 00:26:21;;;;;;;8.88;4.68;;;6.00;1.00;;;;;;5050470;28;20052;-67
2023/03/29 00:28:47;;;;;;;9.05;4.70;;;;;;;;;;5050167;28;20041;-67
2023/03/29 00:31:16;;;;;;;9.10;5.18;;;5.60;1.00;;;;;;5048298;28;20115;-67
2023/03/29 00:33:41;;;;;;;8.48;4.68;;;5.60;1.00;;;;;;5038102;28;20042;-67
2023/03/29 00:36:09;;;;;;;9.60;4.72;;;5.30;2.80;;;;;;5038712;28;20107;-68
2023/03/29 00:38:35;;;;;;;8.85;4.60;;;5.90;1.00;;;;;;5051508;28;20037;-68
2023/03/29 00:41:02;;;;;;;9.55;4.75;;;5.70;18.70;;;;;;5058666;28;20041;-69
2023/03/29 00:43:28;;;;;;;7.68;4.68;;;5.50;27.90;;;;;;5040944;28;20076;-68
2023/03/29 00:45:54;;;;;;;8.68;4.82;;;6.00;10.80;;;;;;5045851;28;20044;-68
2023/03/29 00:48:26;;;;;;;8.93;4.80;;;5.70;20.50;;;;;;5048509;28;20053;-67
2023/03/29 00:50:59;;;;;;;10.02;4.90;;;5.70;21.40;;;;;;5056633;28;20044;-68
2023/03/29 00:53:26;;;;;;;8.27;4.57;;;5.40;94.20;;;;;;5051947;28;20296;-68
2023/03/29 00:56:01;;;;;;;8.43;4.93;;;5.70;72.10;;;;;;5056123;28;20041;-68
2023/03/29 00:58:42;;;;;;;9.80;5.15;;;5.30;99.90;;;;;;5051692;28;20107;-68
2023/03/29 01:01:16;;;;;;;7.80;4.95;;;6.10;99.90;;;;;;5043510;28;20055;-69
2023/03/29 01:03:47;;;;;;;8.95;5.65;;;5.80;99.90;;;;;;5054520;28;20044;-68
2023/03/29 01:06:17;;;;;;;8.60;4.93;;;5.90;99.90;;;;;;5058051;28;20448;-69
2023/03/29 01:08:54;;;;;;;10.43;6.00;;;5.60;99.90;;;;;;5045900;28;20494;-68
2023/03/29 01:11:29;;;;;;;9.85;5.07;;;5.30;99.90;;;;;;5035583;28;20063;-67
2023/03/29 01:14:02;;;;;;;8.90;4.70;;;5.70;99.90;;;;;;5051188;28;20040;-68
2023/03/29 01:16:29;;;;;;;8.77;4.88;;;5.60;99.90;;;;;;5030595;28;20072;-68
2023/03/29 01:18:57;;;;;;;7.80;4.20;;;5.30;99.90;;;;;;5037242;28;20052;-68
2023/03/29 01:21:46;;;;;;;11.02;5.07;;;5.90;99.90;;;;;;5050907;28;20045;-68
2023/03/29 01:24:53;;;;;;;8.23;4.13;;;6.10;99.90;;;;;;5049945;28;20033;-68
2023/03/29 01:27:48;;;;;;;11.45;5.30;;;5.90;99.90;;;;;;5030338;28;20045;-68
2023/03/29 01:30:25;;;;;;;8.40;4.10;;;5.80;99.90;;;;;;5047921;28;20045;-68
2023/03/29 01:32:55;;;;;;;8.50;4.13;;;5.80;99.90;;;;;;5048154;28;20127;-68
2023/03/29 01:35:47;;;;;;;8.10;3.92;;;6.00;99.90;;;;;;5047610;28;20674;-68
2023/03/29 01:38:25;;;;;;;8.10;4.38;;;5.90;99.90;;;;;;5043965;28;20044;-68
2023/03/29 01:40:51;;;;;;;8.80;3.53;;;5.60;99.90;;;;;;5042993;28;20091;-68
2023/03/29 01:43:30;;;;;;;6.55;3.72;;;5.80;99.90;;;;;;5047304;28;20041;-69
2023/03/29 01:46:21;;;;;;;6.70;3.60;;;6.10;99.90;;;;;;5045086;28;20052;-68
2023/03/29 01:48:48;;;;;;;5.70;3.00;;;6.10;99.90;;;;;;5048090;28;20136;-68
2023/03/29 01:51:25;;;;;;;7.63;3.83;;;5.80;99.90;;;;;;5049009;28;20040;-69
2023/03/29 01:54:04;;;;;;;7.85;3.60;;;5.90;99.90;;;;;;5049736;28;20498;-68
2023/03/29 01:56:35;;;;;;;6.70;3.38;;;5.50;99.90;;;;;;5041547;28;20037;-68
2023/03/29 01:59:05;;;;;;;7.00;3.65;;;5.60;99.90;;;;;;5043487;28;20073;-68
2023/03/29 02:01:37;;;;;;;7.18;3.63;;;5.70;82.70;;;;;;5044928;28;20112;-68
2023/03/29 02:04:08;;;;;;;6.53;3.25;;;5.50;79.20;;;;;;5048788;28;20077;-68
2023/03/29 02:06:36;;;;;;;6.78;2.97;;;;;;;;;;5045582;28;20037;-67
2023/03/29 02:09:03;;;;;;;6.40;3.05;;;5.50;55.70;;;;;;5048414;28;20041;-68
2023/03/29 02:11:29;;;;;;;12.15;3.70;;;5.70;80.70;;;;;;5039688;28;20033;-68
2023/03/29 02:13:56;;;;;;;7.10;3.20;;;5.60;76.30;;;;;;5044451;28;20130;-68
2023/03/29 02:16:22;;;;;;;7.38;3.30;;;;;;;;;;5049069;28;20761;-68
2023/03/29 02:18:51;;;;;;;7.10;3.35;;;5.70;65.80;;;;;;5048431;28;20045;-70
2023/03/29 02:21:50;;;;;;;6.65;2.85;;;5.40;63.40;;;;;;5042652;28;20115;-68
2023/03/29 02:24:18;;;;;;;10.82;3.83;;;5.70;62.70;;;;;;5041162;28;20116;-68
2023/03/29 02:26:45;;;;;;;8.65;3.78;;;5.80;54.40;;;;;;5043443;28;20047;-69
2023/03/29 02:29:11;;;;;;;8.73;3.20;;;6.10;57.40;;;;;;5044862;28;20041;-69
2023/03/29 02:31:54;;;;;;;6.28;3.20;;;5.60;65.50;;;;;;5052429;28;20511;-68
2023/03/29 02:34:37;;;;;;;6.45;3.20;;;5.80;48.60;;;;;;5053777;28;20094;-68
2023/03/29 02:37:09;;;;;;;6.32;3.17;;;5.70;38.20;;;;;;5053153;28;20035;-68
2023/03/29 02:39:37;;;;;;;10.88;3.85;;;5.50;22.70;;;;;;5055256;28;20570;-68
2023/03/29 02:42:03;;;;;;;6.15;3.15;;;5.60;18.70;;;;;;5054220;28;20116;-68
2023/03/29 02:44:32;;;;;;;6.35;3.83;;;5.40;21.20;;;;;;5052535;28;20032;-68
2023/03/29 02:47:11;;;;;;;7.00;3.72;;;6.20;6.50;;;;;;5053629;28;20036;-68
2023/03/29 02:49:36;;;;;;;7.10;3.50;;;5.80;1.00;;;;;;5053288;28;20049;-67
2023/03/29 02:52:10;;;;;;;7.85;3.25;;;5.80;1.00;;;;;;5048844;28;20033;-68
2023/03/29 02:54:42;;;;;;;11.05;4.28;;;5.30;1.00;;;;;;5050038;28;20149;-67
2023/03/29 02:57:09;;;;;;;7.82;3.78;;;5.60;1.00;;;;;;5047741;28;20042;-67
2023/03/29 02:59:37;;;;;;;6.43;3.00;;;6.00;1.00;;;;;;5043498;28;20243;-68
2023/03/29 03:02:04;;;;;;;8.68;3.70;;;6.00;1.00;;;;;;5052118;28;20468;-68
2023/03/29 03:04:30;;;;;;;7.45;3.35;;;5.60;2.70;;;;;;5051210;28;20037;-67
2023/03/29 03:06:56;;;;;;;7.65;3.60;;;5.60;1.00;;;;;;5052226;28;20394;-68
2023/03/29 03:09:23;;;;;;;8.80;4.10;;;6.00;19.40;;;;;;5050690;28;20052;-68
2023/03/29 03:11:48;;;;;;;7.35;3.60;;;6.20;2.50;;;;;;5048407;28;20131;-67
2023/03/29 03:14:15;;;;;;;7.95;3.65;;;5.70;15.00;;;;;;5044442;28;20040;-68
2023/03/29 03:16:41;;;;;;;8.23;4.22;;;5.90;22.00;;;;;;5050698;28;20041;-67
2023/03/29 03:19:09;;;;;;;7.82;4.13;;;6.40;36.60;;;;;;5046182;28;20376;-67
2023/03/29 03:21:36;;;;;;;7.97;4.35;;;5.70;22.40;;;;;;5042022;28;20087;-68
2023/03/29 03:24:02;;;;;;;8.27;3.60;;;5.90;28.20;;;;;;5045869;28;20044;-68
2023/03/29 03:26:28;;;;;;;7.25;3.65;;;5.80;57.20;;;;;;5051655;28;20091;-68
2023/03/29 03:28:55;;;;;;;7.30;3.58;;;5.60;40.70;;;;;;5044157;28;20496;-68
2023/03/29 03:31:20;;;;;;;8.43;4.10;;;5.40;21.40;;;;;;5045174;28;20029;-68
2023/03/29 03:33:46;;;;;;;8.05;4.35;;;5.50;39.90;;;;;;5040693;28;20491;-67
2023/03/29 03:36:12;;;;;;;7.63;3.95;;;5.50;16.10;;;;;;5039949;28;20182;-67
2023/03/29 03:38:37;;;;;;;7.63;3.80;;;5.70;1.00;;;;;;5050415;28;20048;-67
2023/03/29 03:41:05;;;;;;;9.60;3.58;;;5.80;1.00;;;;;;5050578;28;20045;-66
2023/03/29 03:43:31;;;;;;;8.43;3.92;;;5.90;1.00;;;;;;5048151;28;20045;-67
2023/03/29 03:45:56;;;;;;;7.70;4.03;;;6.10;1.00;;;;;;5050683;28;20048;-67
2023/03/29 03:48:23;;;;;;;8.23;4.35;;;6.20;1.00;;;;;;5046559;28;20041;-67
2023/03/29 03:50:54;;;;;;;10.05;4.30;;;5.80;1.00;;;;;;5044736;28;20107;-67
2023/03/29 03:53:21;;;;;;;9.07;4.47;;;6.20;1.00;;;;;;5050901;28;20037;-67
2023/03/29 03:55:54;;;;;;;11.80;5.20;;;5.60;1.00;;;;;;5045839;28;20040;-66
2023/03/29 03:58:21;;;;;;;8.52;4.10;;;5.60;1.00;;;;;;5050779;28;20049;-67
2023/03/29 04:00:49;;;;;;;8.23;4.32;;;5.70;1.00;;;;;;5038198;28;20041;-66
2023/03/29 04:03:15;;;;;;;8.90;4.55;;;6.40;1.00;;;;;;5032929;28;20050;-67
2023/03/29 04:05:43;;;;;;;8.32;4.13;;;6.20;1.00;;;;;;5049371;28;20522;-67
2023/03/29 04:08:11;;;;;;;9.93;4.07;;;6.00;1.00;;;;;;5042051;28;20088;-67
2023/03/29 04:10:37;;;;;;;7.38;3.58;;;6.00;1.00;;;;;;5039470;28;20045;-67
2023/03/29 04:13:03;;;;;;;11.85;4.55;;;5.70;1.00;;;;;;5026027;28;20442;-67
2023/03/29 04:15:30;;;;;;;8.32;4.15;;;;;;;;;;5039371;28;20064;-67
2023/03/29 04:17:56;;;;;;;9.65;4.18;;;6.00;1.00;;;;;;5049627;28;20055;-67
2023/03/29 04:20:23;;;;;;;10.15;4.60;;;5.50;1.00;;;;;;5050434;28;20040;-67
2023/03/29 04:22:49;;;;;;;8.30;4.35;;;5.80;1.00;;;;;;5050526;28;20037;-67
2023/03/29 04:25:15;;;;;;;8.95;4.20;;;5.80;1.00;;;;;;5031352;28;20090;-67
2023/03/29 04:27:41;;;;;;;9.02;4.65;;;6.00;1.00;;;;;;5043973;28;20037;-67
2023/03/29 04:30:08;;;;;;;8.70;4.93;;;5.90;29.50;;;;;;5042550;28;20033;-67
2023/03/29 04:32:34;;;;;;;8.90;4.57;;;5.90;22.20;;;;;;5043366;28;20044;-67
2023/03/29 04:35:00;;;;;;;7.70;4.45;;;5.50;61.30;;;;;;5046411;28;20033;-67
2023/03/29 04:37:26;;;;;;;9.57;4.60;;;5.60;68.70;;;;;;5047053;28;20048;-68
2023/03/29 04:39:53;;;;;;;9.32;4.45;;;;;;;;;;5047458;28;20045;-69
2023/03/29 04:42:19;;;;;;;8.38;4.97;;;5.80;82.60;;;;;;5046663;28;20049;-69
2023/03/29 04:44:45;;;;;;;10.00;5.15;;;5.90;99.90;;;;;;5020782;28;20407;-68
2023/03/29 04:47:14;;;;;;;8.75;4.55;;;5.60;98.70;;;;;;5049580;28;20041;-67
2023/03/29 04:49:40;;;;;;;10.25;5.10;;;6.50;99.90;;;;;;5035030;28;20048;-69
2023/03/29 04:52:07;;;;;;;7.90;4.82;;;5.70;99.90;;;;;;5043095;28;20029;-68
2023/03/29 04:54:32;;;;;;;9.55;5.18;;;5.70;99.90;;;;;;5052880;28;20392;-69
2023/03/29 04:56:58;;;;;;;9.43;5.10;;;;;;;;;;5043512;28;20499;-69
2023/03/29 04:59:24;;;;;;;10.88;5.32;;;5.70;99.90;;;;;;5039192;28;20033;-68
2023/03/29 05:01:50;;;;;;;10.48;5.72;;;5.60;99.90;;;;;;5037740;28;20520;-69
2023/03/29 05:04:17;;;;;;;9.68;5.03;;;6.40;99.90;;;;;;5042485;28;20047;-69
2023/03/29 05:06:42;;;;;;;14.02;6.43;;;5.50;99.90;;;;;;5042323;28;20553;-68
2023/03/29 05:09:09;;;;;;;10.73;6.43;;;5.80;99.90;;;;;;5048183;28;20078;-69
2023/03/29 05:11:35;;;;;;;17.10;6.43;;;6.10;99.90;;;;;;5041331;28;20545;-68
2023/03/29 05:14:02;;;;;;;12.80;5.95;;;6.10;99.90;;;;;;5041695;28;20037;-68
2023/03/29 05:16:30;;;;;;;10.40;5.53;;;5.70;99.90;;;;;;5038538;28;20040;-67
2023/03/29 05:18:56;;;;;;;10.15;5.55;;;5.70;99.90;;;;;;5047853;28;20063;-68
2023/03/29 05:21:24;;;;;;;13.27;7.22;;;6.00;99.90;;;;;;5043157;28;20029;-67
2023/03/29 05:23:50;;;;;;;13.55;6.93;;;5.50;1.00;;;;;;5044927;28;20048;-67
2023/03/29 05:26:17;;;;;;;11.52;6.78;;;;;;;;;;5044445;28;20506;-69
2023/03/29 05:28:42;;;;;;;11.43;7.53;;;5.70;1.00;;;;;;5035359;28;20495;-67
2023/03/29 05:31:10;;;;;;;14.80;7.38;;;;;;;;;;5042540;28;20132;-69
2023/03/29 05:33:36;;;;;;;13.25;7.40;;;5.80;18.10;;;;;;5041730;28;20047;-68
2023/03/29 05:36:04;;;;;;;15.20;8.55;;;6.00;36.60;;;;;;5047991;28;20457;-68
2023/03/29 05:38:32;;;;;;;13.18;7.78;;;5.80;74.60;;;;;;5041563;28;20037;-67
2023/03/29 05:40:58;;;;;;;14.48;8.43;;;6.20;99.90;;;;;;5045324;28;20044;-68
2023/03/29 05:43:24;;;;;;;15.57;8.45;;;6.20;99.90;;;;;;5048022;28;20517;-67
2023/03/29 05:45:52;;;;;;;16.27;9.13;;;5.90;99.90;;;;;;5049332;28;20037;-69
2023/03/29 05:48:19;;;;;;;16.38;9.90;;;5.70;99.90;;;;;;5047223;28;20156;-68
2023/03/29 05:50:51;;;;;;;14.95;9.55;;;5.60;99.90;;;;;;5048797;28;20068;-68
2023/03/29 05:53:18;;;;;;;17.15;11.27;;;5.20;99.90;;;;;;5049115;28;20037;-68
2023/03/29 05:55:44;;;;;;;17.50;10.57;;;5.70;99.90;;;;;;5043142;28;20115;-67
2023/03/29 05:58:11;;;;;;;20.13;12.00;;;6.20;99.90;;;;;;5049315;28;20100;-67
2023/03/29 06:00:38;;;;;;;19.50;11.45;;;5.70;1.00;;;;;;5048209;28;20103;-68
2023/03/29 06:03:04;;;;;;;23.73;12.65;;;5.90;1.00;;;;;;5049138;28;20398;-67
2023/03/29 06:05:30;;;;;;;21.75;12.98;;;5.90;78.10;;;;;;5047558;28;20033;-67
2023/03/29 06:07:56;;;;;;;22.98;12.45;;;5.60;91.60;;;;;;5045094;28;20094;-67
2023/03/29 06:10:23;;;;;;;20.88;12.27;;;5.90;99.90;;;;;;5052430;28;20112;-67
2023/03/29 06:12:49;;;;;;;21.85;11.80;;;5.80;99.90;;;;;;5052741;28;20116;-67
2023/03/29 06:15:15;;;;;;;19.02;11.50;;;6.20;99.90;;;;;;5049612;28;20033;-67
2023/03/29 06:17:43;;;;;;;18.92;11.20;;;6.10;99.90;;;;;;5027902;28;20045;-67
2023/03/29 06:20:10;;;;;;;19.80;12.30;;;6.00;99.90;;;;;;5052693;28;20090;-67
2023/03/29 06:22:40;;;;;;;19.63;11.75;;;6.10;99.90;;;;;;5052110;28;20051;-67
2023/03/29 06:25:08;;;;;;;17.70;11.15;;;6.40;99.90;;;;;;5052860;28;20037;-67
2023/03/29 06:27:33;;;;;;;18.90;11.48;;;6.20;99.90;;;;;;5043966;28;20041;-67
2023/03/29 06:29:59;;;;;;;19.73;11.80;;;6.60;99.90;;;;;;5051232;28;20036;-67
2023/03/29 06:32:25;;;;;;;17.45;11.63;;;5.80;99.90;;;;;;5050512;28;20036;-68
2023/03/29 06:34:51;;;;;;;19.50;12.13;;;5.80;99.90;;;;;;5034555;28;20040;-68
2023/03/29 06:37:17;;;;;;;18.48;11.02;;;6.20;99.90;;;;;;5051172;28;20036;-67
2023/03/29 06:39:42;;;;;;;17.60;11.10;;;6.30;99.90;;;;;;5045449;28;20044;-67
2023/03/29 06:42:09;;;;;;;19.80;11.65;;;6.70;99.90;;;;;;5038431;28;20418;-67
2023/03/29 06:44:35;;;;;;;18.80;11.52;;;6.40;99.90;;;;;;5051648;28;20490;-67
2023/03/29 06:47:00;;;;;;;17.30;10.73;;;6.20;99.90;;;;;;5052480;28;20033;-67
2023/03/29 06:49:26;;;;;;;18.92;11.30;;;6.30;99.90;;;;;;5043923;28;20034;-67
2023/03/29 06:51:52;;;;;;;18.95;12.35;;;6.10;99.90;;;;;;5043375;28;20048;-67
2023/03/29 06:54:18;;;;;;;16.23;11.27;;;6.50;99.90;;;;;;5051087;28;20041;-67
2023/03/29 06:56:46;;;;;;;15.50;10.43;;;6.40;99.90;;;;;;5046117;28;20037;-67
2023/03/29 06:59:12;;;;;;;17.80;11.45;;;6.30;99.90;;;;;;5050774;28;20056;-68
2023/03/29 07:01:38;;;;;;;18.75;10.75;;;7.00;99.90;;;;;;5051557;28;20707;-67
2023/03/29 07:04:07;;;;;;;19.60;11.00;;;6.50;99.90;;;;;;5049417;28;20076;-68
2023/03/29 07:06:35;;;;;;;14.15;9.55;;;7.10;99.90;;;;;;5042206;28;20083;-67
2023/03/29 07:09:01;;;;;;;15.82;10.43;;;6.80;99.90;;;;;;5045803;28;20040;-68
2023/03/29 07:11:28;;;;;;;17.42;10.00;;;7.00;99.90;;;;;;5043569;28;20064;-68
2023/03/29 07:13:54;;;;;;;17.30;10.80;;;6.60;99.90;;;;;;5050503;28;20341;-67
2023/03/29 07:16:20;;;;;;;15.30;9.43;;;7.30;99.90;;;;;;5051856;28;20554;-68
2023/03/29 07:18:46;;;;;;;17.70;10.30;;;6.60;99.90;;;;;;5051577;28;20040;-68
2023/03/29 07:21:12;;;;;;;14.82;9.32;;;7.30;76.40;;;;;;5050427;28;20106;-68
2023/03/29 07:23:38;;;;;;;17.42;9.50;;;6.80;72.00;;;;;;5034820;28;20368;-67
2023/03/29 07:26:06;;;;;;;15.27;9.30;;;7.20;66.60;;;;;;5049449;28;20048;-67
2023/03/29 07:28:32;;;;;;;15.70;9.65;;;7.50;88.50;;;;;;5051146;28;20562;-68
2023/03/29 07:31:09;;;;;;;13.15;8.48;;;;;;;;;;5042049;28;20103;-67
2023/03/29 07:33:36;;;;;;;13.98;9.18;;;6.90;62.80;;;;;;5042984;28;20541;-68
2023/03/29 07:36:03;;;;;;;16.67;9.13;;;7.60;50.60;;;;;;5046434;28;20029;-67
2023/03/29 07:38:30;;;;;;;13.20;8.30;;;7.50;1.00;;;;;;5043993;28;20429;-68
2023/03/29 07:40:56;;;;;;;15.65;9.07;;;7.50;1.00;;;;;;5047427;28;20045;-67
2023/03/29 07:43:23;;;;;;;12.88;8.93;;;;;;;;;;5049360;28;20102;-67
2023/03/29 07:45:50;;;;;;;14.57;9.60;;;8.00;1.00;;;;;;5038344;28;20049;-67
2023/03/29 07:48:17;;;;;;;14.13;9.05;;;7.80;1.00;;;;;;5045740;28;20037;-67
2023/03/29 07:50:43;;;;;;;15.52;8.98;;;7.60;1.00;;;;;;5042458;28;20045;-68
2023/03/29 07:53:09;;;;;;;12.35;7.93;;;7.90;99.90;;;;;;5050847;28;20509;-68
2023/03/29 07:55:35;;;;;;;19.50;9.05;;;7.60;1.00;;;;;;5042552;28;20045;-67
2023/03/29 07:58:00;;;;;;;13.05;9.32;;;7.50;99.90;;;;;;5049926;28;20036;-67
2023/03/29 08:00:26;;;;;;;17.25;8.35;;;8.20;99.90;;;;;;5050455;28;20392;-67
2023/03/29 08:02:53;;;;;;;12.93;8.32;;;7.80;99.90;;;;;;5092864;22;20044;-69
2023/03/29 08:05:21;;;;;;;14.20;9.02;;;8.30;99.90;;;;;;5040495;28;20060;-68
2023/03/29 08:07:48;;;;;;;13.88;8.15;;;8.10;99.90;;;;;;5049147;28;20452;-69
2023/03/29 08:10:19;;;;;;;14.20;9.13;;;7.90;99.90;;;;;;5036698;28;20037;-69
2023/03/29 08:12:56;;;;;;;14.05;8.13;;;8.20;99.90;;;;;;5040808;28;20055;-69
2023/03/29 08:15:22;;;;;;;14.13;8.60;;;7.70;92.50;;;;;;5038265;28;20163;-69
2023/03/29 08:17:48;;;;;;;14.90;8.45;;;8.40;99.90;;;;;;5048464;28;20093;-69
2023/03/29 08:20:17;;;;;;;12.48;8.60;;;8.80;20.00;;;;;;5045392;28;20072;-69
2023/03/29 08:22:42;;;;;;;16.10;8.43;;;8.30;1.00;;;;;;5042017;28;20074;-69
2023/03/29 08:25:09;;;;;;;16.42;8.32;;;8.80;1.00;;;;;;5050368;28;20103;-69
2023/03/29 08:27:36;;;;;;;13.15;8.27;;;;;;;;;;5048917;28;20107;-69
2023/03/29 08:30:05;;;;;;;15.50;9.13;;;8.70;1.00;;;;;;5047136;28;20033;-69
2023/03/29 08:32:31;;;;;;;12.57;8.00;;;8.70;1.00;;;;;;5044315;28;20166;-69
2023/03/29 08:34:57;;;;;;;12.43;8.15;;;9.00;99.90;;;;;;5040555;28;20120;-69
2023/03/29 08:37:24;;;;;;;17.40;8.75;;;8.80;99.90;;;;;;5038542;28;20517;-69
2023/03/29 08:39:50;;;;;;;12.35;7.88;;;8.90;99.90;;;;;;5043493;28;20045;-69
2023/03/29 08:42:35;;;;;;;14.98;8.60;;;8.80;99.90;;;;;;5041489;28;20170;-69
2023/03/29 08:45:28;;;;;;;17.63;8.38;;;9.10;99.90;;;;;;5038694;28;20068;-68
2023/03/29 08:48:09;;;;;;;13.20;8.02;;;8.90;99.90;;;;;;5046079;28;20173;-68
2023/03/29 08:50:46;;;;;;;13.63;7.63;;;9.10;99.90;;;;;;5047081;28;20080;-68
2023/03/29 08:53:35;;;;;;;13.88;7.88;;;9.20;57.50;;;;;;5048372;28;20406;-68
2023/03/29 08:56:07;;;;;;;13.70;7.50;;;9.10;33.60;;;;;;5046314;28;20110;-68
2023/03/29 08:58:35;;;;;;;14.75;7.30;;;9.30;1.00;;;;;;5045966;28;20041;-68
2023/03/29 09:01:07;;;;;;;13.43;7.63;;;9.60;99.90;;;;;;5042272;28;20041;-68
2023/03/29 09:03:45;;;;;;;12.57;8.52;;;9.40;99.90;;;;;;5040098;28;20041;-68
2023/03/29 09:06:11;;;;;;;13.60;7.63;;;9.40;99.90;;;;;;5043825;28;20055;-68
2023/03/29 09:08:46;;;;;;;13.70;8.55;;;9.30;99.90;;;;;;5043784;28;20367;-68
2023/03/29 09:11:25;;;;;;;12.35;7.88;;;9.20;1.00;;;;;;5047245;28;20109;-68
2023/03/29 09:14:11;;;;;;;13.00;8.27;;;9.20;99.90;;;;;;5045390;28;20048;-68
2023/03/29 09:16:49;;;;;;;14.40;8.10;;;9.20;99.90;;;;;;5048935;28;20043;-68
2023/03/29 09:19:36;;;;;;;14.98;7.78;;;10.10;99.90;;;;;;5042176;28;20048;-68
2023/03/29 09:22:21;;;;;;;15.85;7.68;;;9.30;99.90;;;;;;5045983;28;20387;-68
2023/03/29 09:24:58;;;;;;;12.55;8.15;;;9.40;99.90;;;;;;5047516;28;20055;-68
2023/03/29 09:27:52;;;;;;;17.38;9.23;;;9.60;99.90;;;;;;5038989;28;20037;-68
2023/03/29 09:30:41;;;;;;;13.13;8.25;;;9.80;99.90;;;;;;5045979;28;20045;-68
2023/03/29 09:33:10;;;;;;;16.85;8.07;;;9.50;99.90;;;;;;5045746;28;20118;-68
2023/03/29 09:36:16;;;;;;;14.60;8.88;;;9.30;99.90;;;;;;5047099;28;20045;-68
2023/03/29 09:38:43;;;;;;;;;;;9.50;99.90;;;;;;5045348;28;20044;-68
2023/03/29 09:41:32;;;;;;;15.70;9.10;;;10.10;99.90;;;;;;5046608;28;20325;-68
2023/03/29 09:44:01;;;;;;;14.88;8.95;;;9.40;99.90;;;;;;5054914;28;20029;-68
2023/03/29 09:46:39;;;;;;;16.35;8.57;;;9.20;99.90;;;;;;5052021;28;20604;-68
2023/03/29 09:49:11;;;;;;;15.48;9.40;;;9.80;99.90;;;;;;5044806;28;20029;-68
2023/03/29 09:51:38;;;;;;;15.52;8.95;;;9.60;99.90;;;;;;5042043;28;20075;-67
2023/03/29 09:54:04;;;;;;;17.48;9.48;;;9.50;99.90;;;;;;5042738;28;20038;-68
2023/03/29 09:56:31;;;;;;;13.00;8.93;;;10.20;99.90;;;;;;5046437;28;20033;-68
2023/03/29 09:58:56;;;;;;;17.98;9.55;;;10.10;99.90;;;;;;5049062;28;20068;-68
2023/03/29 10:01:22;;;;;;;21.08;10.30;;;9.80;99.90;;;;;;5042569;28;20036;-68
2023/03/29 10:03:51;;;;;;;18.60;10.48;;;9.70;99.90;;;;;;5052928;28;20032;-68
2023/03/29 10:06:19;;;;;;;21.60;10.50;;;10.10;99.90;;;;;;5043236;28;20120;-68
2023/03/29 10:08:57;;;;;;;17.33;10.60;;;9.70;99.90;;;;;;5043826;28;20525;-68
2023/03/29 10:11:32;;;;;;;20.55;10.70;;;10.40;99.90;;;;;;5052070;28;20573;-68
2023/03/29 10:14:21;;;;;;;25.13;12.40;;;9.80;99.90;;;;;;5045431;28;20080;-68
2023/03/29 10:16:54;;;;;;;23.35;9.63;;;10.60;99.90;;;;;;5050967;28;20032;-68
2023/03/29 10:19:26;;;;;;;16.45;10.65;;;10.40;99.90;;;;;;5051332;28;20048;-68
2023/03/29 10:21:53;;;;;;;18.75;11.18;;;11.30;99.90;;;;;;5050291;28;20067;-68
2023/03/29 10:24:25;;;;;;;22.15;10.85;;;10.70;99.90;;;;;;5049154;28;20037;-68
2023/03/29 10:26:54;;;;;;;19.60;11.70;;;11.00;82.50;;;;;;5050609;28;20063;-67
2023/03/29 10:29:21;;;;;;;16.92;10.07;;;10.90;69.40;;;;;;5028163;28;20037;-67
2023/03/29 10:31:48;;;;;;;19.25;12.65;;;11.80;1.00;;;;;;5049511;28;20047;-67
2023/03/29 10:34:16;;;;;;;19.58;11.35;;;11.20;1.00;;;;;;5052119;28;20045;-68
2023/03/29 10:36:55;;;;;;;21.30;11.43;;;11.40;1.00;;;;;;5051774;28;20095;-67
2023/03/29 10:39:31;;;;;;;19.65;11.55;;;11.40;99.90;;;;;;5052250;28;20112;-67
2023/03/29 10:41:59;;;;;;;21.58;11.68;;;11.40;1.00;;;;;;5042556;28;20048;-67
2023/03/29 10:44:29;;;;;;;22.17;11.65;;;11.40;1.00;;;;;;5047944;28;20072;-67
2023/03/29 10:46:55;;;;;;;21.48;12.38;;;11.20;1.00;;;;;;5051439;28;20045;-67
2023/03/29 10:49:22;;;;;;;17.55;11.20;;;11.10;1.00;;;;;;5051793;28;20025;-67
2023/03/29 10:51:49;;;;;;;23.88;12.27;;;11.60;1.00;;;;;;5050033;28;20101;-67
2023/03/29 10:54:19;;;;;;;23.00;12.60;;;11.30;99.90;;;;;;5042507;28;20044;-67
2023/03/29 10:56:54;;;;;;;25.73;14.07;;;11.10;99.90;;;;;;5032382;28;20052;-67
2023/03/29 10:59:28;;;;;;;;;;;11.20;1.00;;;;;;5042941;28;20037;-67
2023/03/29 11:02:14;;;;;;;24.08;14.25;;;11.50;1.00;;;;;;5048649;28;19916;-67
2023/03/29 11:05:08;;;;;;;25.35;15.70;;;11.80;1.00;;;;;;5045433;28;20036;-67
2023/03/29 11:08:10;;;;;;;22.83;13.43;;;11.60;99.90;;;;;;5044005;28;20546;-67
2023/03/29 11:10:52;;;;;;;22.88;14.00;;;11.70;99.90;;;;;;5047850;28;20059;-67
2023/03/29 11:13:30;;;;;;;22.35;13.65;;;12.40;99.90;;;;;;5047789;28;20682;-67
2023/03/29 11:16:08;;;;;;;21.75;13.20;;;11.50;99.90;;;;;;5047604;28;20049;-67
2023/03/29 11:18:37;;;;;;;21.08;14.10;;;11.90;99.90;;;;;;5050044;28;20040;-67
2023/03/29 11:21:25;;;;;;;23.42;14.77;;;11.80;99.90;;;;;;5042857;28;20033;-67
2023/03/29 11:24:09;;;;;;;22.40;13.52;;;12.30;99.90;;;;;;5046588;28;20037;-66
2023/03/29 11:26:56;;;;;;;23.92;14.27;;;11.90;99.90;;;;;;5050640;28;20498;-67
2023/03/29 11:29:57;;;;;;;23.45;14.73;;;12.50;99.90;;;;;;5039745;28;20120;-66
2023/03/29 11:32:27;;;;;;;22.17;12.88;;;12.10;99.90;;;;;;5038409;28;20415;-67
2023/03/29 11:35:27;;;;;;;24.13;14.70;;;11.70;99.90;;;;;;5043692;28;20391;-67
2023/03/29 11:37:55;;;;;;;20.25;13.70;;;12.20;99.90;;;;;;5027689;28;20045;-67
2023/03/29 11:40:39;;;;;;;21.33;12.93;;;12.40;99.90;;;;;;5051024;28;20044;-67
2023/03/29 11:43:14;;;;;;;21.63;14.10;;;12.20;99.90;;;;;;5043355;28;20037;-66
2023/03/29 11:45:49;;;;;;;20.52;12.00;;;12.50;99.90;;;;;;5047998;28;20047;-67
2023/03/29 11:48:24;;;;;;;26.00;12.77;;;12.00;99.90;;;;;;5039132;28;20395;-66
2023/03/29 11:50:59;;;;;;;22.50;14.02;;;12.30;99.90;;;;;;5047042;28;20051;-67
2023/03/29 11:53:30;;;;;;;;;;;12.70;99.90;;;;;;5044707;28;20509;-67
2023/03/29 11:56:07;;;;;;;25.05;14.20;;;12.30;99.90;;;;;;5045344;28;19924;-67
2023/03/29 11:58:38;;;;;;;23.65;13.80;;;12.50;99.90;;;;;;5050727;28;20025;-66
2023/03/29 12:01:15;;;;;;;22.92;13.60;;;12.80;99.90;;;;;;5045506;28;20090;-67
2023/03/29 12:03:51;;;;;;;22.45;14.07;;;13.00;99.90;;;;;;5048985;28;20506;-67
2023/03/29 12:06:33;;;;;;;20.95;12.38;;;13.00;99.90;;;;;;5039599;28;20034;-67
2023/03/29 12:09:06;;;;;;;23.80;15.02;;;12.80;99.90;;;;;;5049848;28;20041;-66
2023/03/29 12:11:36;;;;;;;21.13;12.83;;;12.50;99.90;;;;;;5049793;28;20044;-66
2023/03/29 12:14:09;;;;;;;20.98;14.02;;;12.90;99.90;;;;;;5048422;28;20033;-66
2023/03/29 12:16:47;;;;;;;19.65;14.48;;;13.10;99.90;;;;;;5042006;28;20120;-66
2023/03/29 12:19:27;;;;;;;23.75;13.45;;;12.60;99.90;;;;;;5043174;28;20048;-66
2023/03/29 12:21:55;;;;;;;22.63;13.98;;;;;;;;;;5049329;28;20063;-66
2023/03/29 12:24:21;;;;;;;30.65;16.40;;;12.80;99.90;;;;;;5047563;28;20041;-66
2023/03/29 12:26:56;;;;;;;24.75;14.02;;;12.00;99.90;;;;;;5043494;28;20094;-67
2023/03/29 12:29:28;;;;;;;20.92;14.73;;;13.00;99.90;;;;;;5049041;28;20035;-66
2023/03/29 12:31:54;;;;;;;24.48;16.42;;;12.40;99.90;;;;;;5045785;28;20086;-66
2023/03/29 12:34:35;;;;;;;22.05;14.15;;;12.10;99.90;;;;;;5038261;28;20033;-66
2023/03/29 12:37:16;;;;;;;21.10;14.30;;;12.30;99.90;;;;;;5047244;28;20057;-66
2023/03/29 12:39:42;;;;;;;25.35;13.98;;;12.70;99.90;;;;;;5046243;28;20064;-66
2023/03/29 12:42:20;;;;;;;24.50;14.25;;;12.90;99.90;;;;;;5049455;28;20052;-66
2023/03/29 12:45:04;;;;;;;21.35;13.80;;;12.00;99.90;;;;;;5045193;28;20090;-66
2023/03/29 12:47:36;;;;;;;19.25;13.23;;;12.10;99.90;;;;;;5049781;28;20112;-66
2023/03/29 12:50:03;;;;;;;25.50;13.82;;;12.50;99.90;;;;;;5045636;28;20059;-66
2023/03/29 12:52:34;;;;;;;19.88;13.40;;;12.60;99.90;;;;;;5039726;28;20068;-65
2023/03/29 12:55:54;;;;;;;20.77;13.35;;;12.70;99.90;;;;;;5049392;28;20049;-66
2023/03/29 12:58:23;;;;;;;25.70;14.32;;;13.10;99.90;;;;;;4962316;28;20043;-66
2023/03/29 13:01:04;;;;;;;22.15;14.93;;;12.40;99.90;;;;;;4967691;28;20045;-66
2023/03/29 13:03:38;;;;;;;21.83;15.48;;;12.50;99.90;;;;;;5011359;28;20052;-66
2023/03/29 13:06:08;;;;;;;20.10;13.82;;;12.80;99.90;;;;;;5044202;28;20045;-66
2023/03/29 13:08:42;;;;;;;18.23;12.95;;;12.70;99.90;;;;;;5049444;28;20059;-66
2023/03/29 13:11:31;;;;;;;22.38;13.95;;;12.80;99.90;;;;;;5047704;28;20402;-66